createdAt,value
2023-03-31T00:00:57.112Z,12.69
2023-03-31T00:01:57.112Z,12.79
2023-03-31T00:02:57.207Z,12.71
2023-03-31T00:03:57.263Z,12.72
2023-03-31T00:04:57.171Z,12.71
2023-03-31T00:05:57.064Z,12.68
2023-03-31T00:06:57.052Z,12.68
2023-03-31T00:07:57.082Z,12.66
2023-03-31T00:08:57.050Z,12.80
2023-03-31T00:10:07.123Z,12.68
2023-03-31T00:10:58.007Z,12.71
2023-03-31T00:11:57.007Z,12.72
2023-03-31T00:12:56.991Z,12.79
2023-03-31T00:13:57.000Z,12.73
2023-03-31T00:14:56.964Z,12.76
2023-03-31T00:15:56.987Z,12.77
2023-03-31T00:16:57.053Z,12.73
2023-03-31T00:17:56.972Z,12.69
2023-03-31T00:18:56.961Z,12.73
2023-03-31T00:19:56.908Z,12.69
2023-03-31T00:20:56.904Z,12.63
2023-03-31T00:21:56.895Z,12.66
2023-03-31T00:22:56.871Z,12.71
2023-03-31T00:23:56.892Z,12.62
2023-03-31T00:24:56.853Z,12.62
2023-03-31T00:25:56.880Z,12.63
2023-03-31T00:26:56.834Z,12.73
2023-03-31T00:27:56.822Z,12.59
2023-03-31T00:28:56.816Z,12.59
2023-03-31T00:29:56.802Z,12.59
2023-03-31T00:30:56.783Z,12.73
2023-03-31T00:31:56.859Z,12.58
2023-03-31T00:32:56.794Z,12.65
2023-03-31T00:33:56.762Z,12.66
2023-03-31T00:34:56.762Z,12.59
2023-03-31T00:35:56.793Z,12.58
2023-03-31T00:36:56.889Z,12.54
2023-03-31T00:37:56.719Z,12.65
2023-03-31T00:38:56.694Z,12.63
2023-03-31T00:39:56.687Z,12.63
2023-03-31T00:40:56.672Z,12.69
2023-03-31T00:41:56.692Z,12.55
2023-03-31T00:42:56.651Z,12.63
2023-03-31T00:43:56.646Z,12.61
2023-03-31T00:44:56.655Z,12.61
2023-03-31T00:45:56.650Z,12.66
2023-03-31T00:46:56.609Z,12.61
2023-03-31T00:47:56.637Z,12.62
2023-03-31T00:48:56.597Z,12.66
2023-03-31T00:49:56.592Z,12.62
2023-03-31T00:50:56.594Z,12.62
2023-03-31T00:51:56.573Z,12.65
2023-03-31T00:52:56.576Z,12.61
2023-03-31T00:53:56.530Z,12.61
2023-03-31T00:54:56.538Z,12.62
2023-03-31T00:55:56.504Z,12.59
2023-03-31T00:56:56.527Z,12.61
2023-03-31T00:57:56.506Z,12.62
2023-03-31T00:58:56.482Z,12.62
2023-03-31T00:59:56.493Z,12.62
2023-03-31T01:00:56.466Z,12.61
2023-03-31T01:01:56.443Z,12.62
2023-03-31T01:02:56.494Z,12.53
2023-03-31T01:03:56.451Z,12.54
2023-03-31T01:04:56.438Z,12.58
2023-03-31T01:05:56.400Z,12.53
2023-03-31T01:06:56.414Z,12.58
2023-03-31T01:07:56.381Z,12.55
2023-03-31T01:08:56.366Z,12.48
2023-03-31T01:09:56.381Z,12.59
2023-03-31T01:10:56.350Z,12.59
2023-03-31T01:11:56.337Z,12.55
2023-03-31T01:12:56.326Z,12.58
2023-03-31T01:13:56.468Z,12.51
2023-03-31T01:14:56.309Z,12.48
2023-03-31T01:15:56.294Z,12.58
2023-03-31T01:16:56.398Z,12.51
2023-03-31T01:17:56.345Z,12.53
2023-03-31T01:18:56.288Z,12.54
2023-03-31T01:19:56.247Z,12.55
2023-03-31T01:20:56.236Z,12.48
2023-03-31T01:21:56.225Z,12.48
2023-03-31T01:22:56.244Z,12.50
2023-03-31T01:23:56.236Z,12.50
2023-03-31T01:24:56.199Z,12.55
2023-03-31T01:25:56.183Z,12.50
2023-03-31T01:26:56.173Z,12.48
2023-03-31T01:27:56.160Z,12.53
2023-03-31T01:28:56.175Z,12.46
2023-03-31T01:29:56.142Z,12.48
2023-03-31T01:30:56.191Z,12.48
2023-03-31T01:31:56.121Z,12.47
2023-03-31T01:32:56.152Z,12.44
2023-03-31T01:33:56.117Z,12.41
2023-03-31T01:34:56.113Z,12.47
2023-03-31T01:35:56.219Z,12.46
2023-03-31T01:36:56.071Z,12.43
2023-03-31T01:37:56.051Z,12.44
2023-03-31T01:38:56.062Z,12.43
2023-03-31T01:39:56.057Z,12.40
2023-03-31T01:40:56.026Z,12.38
2023-03-31T01:41:56.020Z,12.43
2023-03-31T01:42:56.000Z,12.43
2023-03-31T01:43:55.990Z,12.36
2023-03-31T01:44:56.000Z,12.38
2023-03-31T01:45:55.990Z,12.36
2023-03-31T01:46:55.954Z,12.38
2023-03-31T01:47:55.970Z,12.38
2023-03-31T01:48:55.934Z,12.35
2023-03-31T01:49:55.952Z,12.40
2023-03-31T01:50:55.914Z,12.40
2023-03-31T01:51:55.931Z,12.38
2023-03-31T01:52:55.895Z,12.26
2023-03-31T01:53:55.875Z,12.36
2023-03-31T01:54:55.890Z,12.26
2023-03-31T01:55:55.877Z,12.32
2023-03-31T01:56:55.900Z,12.28
2023-03-31T01:57:55.837Z,12.29
2023-03-31T01:58:55.900Z,12.26
2023-03-31T01:59:55.811Z,12.21
2023-03-31T02:00:55.804Z,12.25
2023-03-31T02:01:55.845Z,12.26
2023-03-31T02:02:55.890Z,12.25
2023-03-31T02:03:55.805Z,12.22
2023-03-31T02:04:55.762Z,12.23
2023-03-31T02:05:55.748Z,12.15
2023-03-31T02:06:55.756Z,12.23
2023-03-31T02:07:55.727Z,12.13
2023-03-31T02:08:55.723Z,12.26
2023-03-31T02:09:55.738Z,12.13
2023-03-31T02:10:55.719Z,12.21
2023-03-31T02:11:55.682Z,12.15
2023-03-31T02:12:55.683Z,12.08
2023-03-31T02:13:55.674Z,12.23
2023-03-31T02:14:55.673Z,12.22
2023-03-31T02:15:55.676Z,12.18
2023-03-31T02:16:55.628Z,12.15
2023-03-31T02:17:55.697Z,12.17
2023-03-31T02:18:55.606Z,12.13
2023-03-31T02:19:55.593Z,12.05
2023-03-31T02:20:55.583Z,12.00
2023-03-31T02:21:55.583Z,12.18
2023-03-31T02:22:55.590Z,12.07
2023-03-31T02:23:55.545Z,11.96
2023-03-31T02:24:55.542Z,11.97
2023-03-31T02:25:55.529Z,12.08
2023-03-31T02:26:55.545Z,12.04
2023-03-31T02:27:55.528Z,12.05
2023-03-31T02:28:55.506Z,12.05
2023-03-31T02:29:55.483Z,12.04
2023-03-31T02:30:55.472Z,12.00
2023-03-31T02:31:55.561Z,11.91
2023-03-31T02:32:55.501Z,11.88
2023-03-31T02:33:55.443Z,11.93
2023-03-31T02:34:55.441Z,12.04
2023-03-31T02:35:55.535Z,11.89
2023-03-31T02:36:55.418Z,12.04
2023-03-31T02:37:55.417Z,11.87
2023-03-31T02:38:55.398Z,11.93
2023-03-31T02:39:55.374Z,11.91
2023-03-31T02:40:55.361Z,11.91
2023-03-31T02:41:55.351Z,11.91
2023-03-31T02:42:55.391Z,11.87
2023-03-31T02:43:55.336Z,11.91
2023-03-31T02:44:55.326Z,11.89
2023-03-31T02:45:55.367Z,11.91
2023-03-31T02:46:55.310Z,11.91
2023-03-31T02:47:55.323Z,11.87
2023-03-31T02:48:55.280Z,11.91
2023-03-31T02:49:55.266Z,11.87
2023-03-31T02:50:55.265Z,11.91
2023-03-31T02:51:55.247Z,11.93
2023-03-31T02:52:55.254Z,11.95
2023-03-31T02:53:55.220Z,11.88
2023-03-31T02:54:55.223Z,11.89
2023-03-31T02:55:55.200Z,11.91
2023-03-31T02:56:55.280Z,11.79
2023-03-31T02:57:55.201Z,11.97
2023-03-31T02:58:55.202Z,11.80
2023-03-31T02:59:55.158Z,11.87
2023-03-31T03:00:55.195Z,11.89
2023-03-31T03:01:55.203Z,11.91
2023-03-31T03:02:55.186Z,11.77
2023-03-31T03:03:55.120Z,11.84
2023-03-31T03:04:55.106Z,11.87
2023-03-31T03:05:55.113Z,11.91
2023-03-31T03:06:55.109Z,11.85
2023-03-31T03:07:55.072Z,11.85
2023-03-31T03:08:55.076Z,11.91
2023-03-31T03:09:55.051Z,11.85
2023-03-31T03:10:55.041Z,11.89
2023-03-31T03:11:55.049Z,11.79
2023-03-31T03:12:55.019Z,11.85
2023-03-31T03:13:55.024Z,11.77
2023-03-31T03:14:55.039Z,11.95
2023-03-31T03:15:54.982Z,11.85
2023-03-31T03:16:55.091Z,11.93
2023-03-31T03:17:55.016Z,11.96
2023-03-31T03:18:54.979Z,11.96
2023-03-31T03:19:54.947Z,11.80
2023-03-31T03:20:54.932Z,11.80
2023-03-31T03:21:54.917Z,11.80
2023-03-31T03:22:54.912Z,11.91
2023-03-31T03:23:54.928Z,11.76
2023-03-31T03:24:54.892Z,11.77
2023-03-31T03:25:54.874Z,11.87
2023-03-31T03:26:54.866Z,11.79
2023-03-31T03:27:54.895Z,11.77
2023-03-31T03:28:54.856Z,11.74
2023-03-31T03:29:54.833Z,11.84
2023-03-31T03:30:54.909Z,11.85
2023-03-31T03:31:54.810Z,11.91
2023-03-31T03:32:54.882Z,11.84
2023-03-31T03:33:54.790Z,11.84
2023-03-31T03:34:54.778Z,11.77
2023-03-31T03:35:54.776Z,11.87
2023-03-31T03:36:54.782Z,11.79
2023-03-31T03:37:54.775Z,11.80
2023-03-31T03:38:54.748Z,11.82
2023-03-31T03:39:54.720Z,11.87
2023-03-31T03:40:54.716Z,11.84
2023-03-31T03:41:54.718Z,11.80
2023-03-31T03:42:54.727Z,11.85
2023-03-31T03:43:54.681Z,11.84
2023-03-31T03:44:54.672Z,11.76
2023-03-31T03:45:54.732Z,11.88
2023-03-31T03:46:54.690Z,11.77
2023-03-31T03:47:54.721Z,11.79
2023-03-31T03:48:54.630Z,11.84
2023-03-31T03:49:54.618Z,11.76
2023-03-31T03:50:54.631Z,11.84
2023-03-31T03:51:54.599Z,11.80
2023-03-31T03:52:54.609Z,11.85
2023-03-31T03:53:54.570Z,11.79
2023-03-31T03:54:54.575Z,11.77
2023-03-31T03:55:54.548Z,11.80
2023-03-31T03:56:54.586Z,11.82
2023-03-31T03:57:54.546Z,11.80
2023-03-31T03:58:54.518Z,11.85
2023-03-31T03:59:54.526Z,11.79
2023-03-31T04:00:54.493Z,11.80
2023-03-31T04:01:54.535Z,11.84
2023-03-31T04:02:54.548Z,11.82
2023-03-31T04:03:54.492Z,11.77
2023-03-31T04:04:54.493Z,11.79
2023-03-31T04:05:54.438Z,11.77
2023-03-31T04:06:54.427Z,11.85
2023-03-31T04:07:54.412Z,11.82
2023-03-31T04:08:54.403Z,11.77
2023-03-31T04:09:54.413Z,11.82
2023-03-31T04:10:54.386Z,11.82
2023-03-31T04:11:54.378Z,11.77
2023-03-31T04:12:54.392Z,11.84
2023-03-31T04:13:54.352Z,11.84
2023-03-31T04:14:54.361Z,11.77
2023-03-31T04:15:54.334Z,11.84
2023-03-31T04:16:54.320Z,11.82
2023-03-31T04:17:54.333Z,11.82
2023-03-31T04:18:54.316Z,11.84
2023-03-31T04:19:54.316Z,11.77
2023-03-31T04:20:54.300Z,11.76
2023-03-31T04:21:54.278Z,11.80
2023-03-31T04:22:54.249Z,11.87
2023-03-31T04:23:54.236Z,11.77
2023-03-31T04:24:54.232Z,11.80
2023-03-31T04:25:54.239Z,11.79
2023-03-31T04:26:54.220Z,11.82
2023-03-31T04:27:54.190Z,11.84
2023-03-31T04:28:54.196Z,11.76
2023-03-31T04:29:54.167Z,11.84
2023-03-31T04:30:54.185Z,11.87
2023-03-31T04:31:54.217Z,11.80
2023-03-31T04:32:54.165Z,11.84
2023-03-31T04:33:54.125Z,11.87
2023-03-31T04:34:54.135Z,11.88
2023-03-31T04:35:54.153Z,11.79
2023-03-31T04:36:54.093Z,11.79
2023-03-31T04:37:54.112Z,11.79
2023-03-31T04:38:54.070Z,11.79
2023-03-31T04:39:54.055Z,11.84
2023-03-31T04:40:54.094Z,11.80
2023-03-31T04:41:54.047Z,11.85
2023-03-31T04:42:54.026Z,11.77
2023-03-31T04:43:54.011Z,11.89
2023-03-31T04:44:54.006Z,11.91
2023-03-31T04:45:54.028Z,11.82
2023-03-31T04:46:53.984Z,11.85
2023-03-31T04:47:54.004Z,11.87
2023-03-31T04:48:53.967Z,11.87
2023-03-31T04:49:53.948Z,11.77
2023-03-31T04:50:53.989Z,11.88
2023-03-31T04:51:53.958Z,11.80
2023-03-31T04:52:53.916Z,11.84
2023-03-31T04:53:53.907Z,11.80
2023-03-31T04:54:53.892Z,11.77
2023-03-31T04:55:53.888Z,11.80
2023-03-31T04:56:53.937Z,11.88
2023-03-31T04:57:53.861Z,11.84
2023-03-31T04:58:53.854Z,11.79
2023-03-31T04:59:53.873Z,11.89
2023-03-31T05:00:53.864Z,11.84
2023-03-31T05:01:53.848Z,11.82
2023-03-31T05:02:53.857Z,11.77
2023-03-31T05:03:53.816Z,11.88
2023-03-31T05:04:53.789Z,11.80
2023-03-31T05:05:53.781Z,11.91
2023-03-31T05:06:53.822Z,11.84
2023-03-31T05:07:53.794Z,11.77
2023-03-31T05:08:53.748Z,11.80
2023-03-31T05:09:53.740Z,11.87
2023-03-31T05:10:53.725Z,11.77
2023-03-31T05:11:53.736Z,11.84
2023-03-31T05:12:53.725Z,11.87
2023-03-31T05:13:53.701Z,11.88
2023-03-31T05:14:53.679Z,11.82
2023-03-31T05:15:53.679Z,11.87
2023-03-31T05:16:53.697Z,11.77
2023-03-31T05:17:53.736Z,11.89
2023-03-31T05:18:53.642Z,11.82
2023-03-31T05:19:53.628Z,11.84
2023-03-31T05:20:53.616Z,11.91
2023-03-31T05:21:53.612Z,11.85
2023-03-31T05:22:53.662Z,11.80
2023-03-31T05:23:53.588Z,11.93
2023-03-31T05:24:53.572Z,11.80
2023-03-31T05:25:53.569Z,11.93
2023-03-31T05:26:53.551Z,11.82
2023-03-31T05:27:53.549Z,11.80
2023-03-31T05:28:53.592Z,11.80
2023-03-31T05:29:53.528Z,11.80
2023-03-31T05:30:53.513Z,11.89
2023-03-31T05:31:53.523Z,11.87
2023-03-31T05:32:53.588Z,11.76
2023-03-31T05:33:53.480Z,11.89
2023-03-31T05:34:53.471Z,11.84
2023-03-31T05:35:53.482Z,11.80
2023-03-31T05:36:53.460Z,11.91
2023-03-31T05:37:53.477Z,11.80
2023-03-31T05:38:53.454Z,11.82
2023-03-31T05:39:53.419Z,11.79
2023-03-31T05:40:53.396Z,11.82
2023-03-31T05:41:53.389Z,11.80
2023-03-31T05:42:53.381Z,11.97
2023-03-31T05:43:53.395Z,11.84
2023-03-31T05:44:53.373Z,11.95
2023-03-31T05:45:53.423Z,11.84
2023-03-31T05:46:53.363Z,11.97
2023-03-31T05:47:53.362Z,11.85
2023-03-31T05:48:53.334Z,11.82
2023-03-31T05:49:53.306Z,11.88
2023-03-31T05:50:53.291Z,11.87
2023-03-31T05:51:53.282Z,11.85
2023-03-31T05:52:53.266Z,11.93
2023-03-31T05:53:53.288Z,11.84
2023-03-31T05:54:53.280Z,11.87
2023-03-31T05:55:53.252Z,11.93
2023-03-31T05:56:53.260Z,11.95
2023-03-31T05:57:53.218Z,11.95
2023-03-31T05:58:53.229Z,11.91
2023-03-31T05:59:53.194Z,11.88
2023-03-31T06:00:53.189Z,11.96
2023-03-31T06:01:53.292Z,11.93
2023-03-31T06:02:53.255Z,11.97
2023-03-31T06:03:53.199Z,11.87
2023-03-31T06:04:53.137Z,11.87
2023-03-31T06:05:53.134Z,11.95
2023-03-31T06:06:53.112Z,11.88
2023-03-31T06:07:53.105Z,11.87
2023-03-31T06:08:53.117Z,11.99
2023-03-31T06:09:53.100Z,11.97
2023-03-31T06:10:53.098Z,11.88
2023-03-31T06:11:53.071Z,11.82
2023-03-31T06:12:53.048Z,11.89
2023-03-31T06:13:53.084Z,11.96
2023-03-31T06:14:53.026Z,11.93
2023-03-31T06:15:53.058Z,11.87
2023-03-31T06:16:53.281Z,11.89
2023-03-31T06:17:53.072Z,11.93
2023-03-31T06:18:53.004Z,11.84
2023-03-31T06:19:52.971Z,11.91
2023-03-31T06:20:52.973Z,11.93
2023-03-31T06:21:52.955Z,11.88
2023-03-31T06:22:52.939Z,11.91
2023-03-31T06:23:52.969Z,12.03
2023-03-31T06:24:52.920Z,12.03
2023-03-31T06:25:52.913Z,12.04
2023-03-31T06:26:53.930Z,11.96
2023-03-31T06:27:52.890Z,12.03
2023-03-31T06:28:52.901Z,12.03
2023-03-31T06:29:52.865Z,12.04
2023-03-31T06:30:52.852Z,12.04
2023-03-31T06:31:52.892Z,12.03
2023-03-31T06:32:52.912Z,12.07
2023-03-31T06:33:52.845Z,12.00
2023-03-31T06:34:52.807Z,12.17
2023-03-31T06:35:52.830Z,12.10
2023-03-31T06:36:52.810Z,12.15
2023-03-31T06:37:52.802Z,12.13
2023-03-31T06:38:52.776Z,12.17
2023-03-31T06:39:52.780Z,12.18
2023-03-31T06:40:52.775Z,12.14
2023-03-31T06:41:52.777Z,12.18
2023-03-31T06:42:52.753Z,12.14
2023-03-31T06:43:52.711Z,12.14
2023-03-31T06:44:52.803Z,12.15
2023-03-31T06:46:03.904Z,12.22
2023-03-31T06:46:53.686Z,12.15
2023-03-31T06:47:52.738Z,12.22
2023-03-31T06:48:52.651Z,12.11
2023-03-31T06:49:52.655Z,12.25
2023-03-31T06:50:52.654Z,12.28
2023-03-31T06:51:52.642Z,12.32
2023-03-31T06:52:52.635Z,12.29
2023-03-31T06:53:52.637Z,12.26
2023-03-31T06:54:52.609Z,12.29
2023-03-31T06:55:52.604Z,12.33
2023-03-31T06:56:52.592Z,12.33
2023-03-31T06:57:52.579Z,12.38
2023-03-31T06:58:52.615Z,12.36
2023-03-31T06:59:52.540Z,12.35
2023-03-31T07:00:52.546Z,12.36
2023-03-31T07:01:52.584Z,12.36
2023-03-31T07:02:52.625Z,12.50
2023-03-31T07:03:52.506Z,12.41
2023-03-31T07:04:52.473Z,12.46
2023-03-31T07:05:52.472Z,12.46
2023-03-31T07:06:52.455Z,12.48
2023-03-31T07:07:52.479Z,12.55
2023-03-31T07:08:52.434Z,12.50
2023-03-31T07:09:52.438Z,12.51
2023-03-31T07:10:52.405Z,12.55
2023-03-31T07:11:52.397Z,12.53
2023-03-31T07:12:52.480Z,12.55
2023-03-31T07:13:52.384Z,12.62
2023-03-31T07:14:52.396Z,12.66
2023-03-31T07:15:52.392Z,12.59
2023-03-31T07:16:52.444Z,12.61
2023-03-31T07:17:52.362Z,12.71
2023-03-31T07:18:52.326Z,12.71
2023-03-31T07:19:52.340Z,12.69
2023-03-31T07:20:52.299Z,12.71
2023-03-31T07:21:52.311Z,12.73
2023-03-31T07:22:52.289Z,12.77
2023-03-31T07:23:52.273Z,12.80
2023-03-31T07:24:52.272Z,12.80
2023-03-31T07:25:52.248Z,12.91
2023-03-31T07:26:52.259Z,12.90
2023-03-31T07:27:52.220Z,12.91
2023-03-31T07:28:52.213Z,12.96
2023-03-31T07:29:52.238Z,12.90
2023-03-31T07:30:52.208Z,12.93
2023-03-31T07:31:52.201Z,12.95
2023-03-31T07:32:52.250Z,12.99
2023-03-31T07:33:52.154Z,12.95
2023-03-31T07:34:52.142Z,13.01
2023-03-31T07:36:07.880Z,13.11
2023-03-31T07:36:53.173Z,13.13
2023-03-31T07:37:52.111Z,13.06
2023-03-31T07:38:52.103Z,13.11
2023-03-31T07:39:52.092Z,13.20
2023-03-31T07:41:02.112Z,13.17
2023-03-31T07:41:53.075Z,13.23
2023-03-31T07:42:52.117Z,13.30
2023-03-31T07:43:52.048Z,13.27
2023-03-31T07:44:52.028Z,13.17
2023-03-31T07:45:52.070Z,13.30
2023-03-31T07:46:52.038Z,13.39
2023-03-31T07:47:52.133Z,13.36
2023-03-31T07:48:51.988Z,13.38
2023-03-31T07:49:51.979Z,13.39
2023-03-31T07:50:51.985Z,13.40
2023-03-31T07:51:51.987Z,13.49
2023-03-31T07:52:51.967Z,13.53
2023-03-31T07:53:51.938Z,13.53
2023-03-31T07:54:51.932Z,13.60
2023-03-31T07:55:51.933Z,13.64
2023-03-31T07:56:51.941Z,13.68
2023-03-31T07:57:51.896Z,13.67
2023-03-31T07:58:53.295Z,13.67
2023-03-31T07:59:51.874Z,13.78
2023-03-31T08:00:51.886Z,13.71
2023-03-31T08:01:51.869Z,13.79
2023-03-31T08:02:51.900Z,13.80
2023-03-31T08:03:51.903Z,13.83
2023-03-31T08:04:51.817Z,13.90
2023-03-31T08:05:52.460Z,13.88
2023-03-31T08:06:51.821Z,13.91
2023-03-31T08:07:51.792Z,14.00
2023-03-31T08:08:51.778Z,13.98
2023-03-31T08:09:51.764Z,14.04
2023-03-31T08:10:51.751Z,14.05
2023-03-31T08:11:51.767Z,14.05
2023-03-31T08:12:51.728Z,14.01
2023-03-31T08:13:51.734Z,14.08
2023-03-31T08:14:51.705Z,14.18
2023-03-31T08:15:51.725Z,14.18
2023-03-31T08:16:51.707Z,14.16
2023-03-31T08:17:51.736Z,14.19
2023-03-31T08:18:51.685Z,14.15
2023-03-31T08:19:51.668Z,14.30
2023-03-31T08:20:51.635Z,14.28
2023-03-31T08:21:51.657Z,14.27
2023-03-31T08:22:51.626Z,14.34
2023-03-31T08:23:51.608Z,14.36
2023-03-31T08:24:51.596Z,14.40
2023-03-31T08:25:51.587Z,14.46
2023-03-31T08:26:51.638Z,14.38
2023-03-31T08:27:51.565Z,14.55
2023-03-31T08:28:51.551Z,14.45
2023-03-31T08:29:51.560Z,14.46
2023-03-31T08:30:51.529Z,14.53
2023-03-31T08:31:51.637Z,14.59
2023-03-31T08:32:51.555Z,14.56
2023-03-31T08:33:51.515Z,14.63
2023-03-31T08:34:51.533Z,14.52
2023-03-31T08:35:51.532Z,14.66
2023-03-31T08:36:51.482Z,14.61
2023-03-31T08:37:51.458Z,14.73
2023-03-31T08:38:51.440Z,14.71
2023-03-31T08:39:51.456Z,14.77
2023-03-31T08:40:51.411Z,14.82
2023-03-31T08:41:51.407Z,14.79
2023-03-31T08:42:51.406Z,14.85
2023-03-31T08:43:51.383Z,14.89
2023-03-31T08:44:51.403Z,14.89
2023-03-31T08:45:52.234Z,14.95
2023-03-31T08:46:51.345Z,14.95
2023-03-31T08:47:51.447Z,15.01
2023-03-31T08:48:51.326Z,15.05
2023-03-31T08:49:51.343Z,15.03
2023-03-31T08:50:51.336Z,15.07
2023-03-31T08:51:51.325Z,15.14
2023-03-31T08:52:51.289Z,15.19
2023-03-31T08:53:51.277Z,15.15
2023-03-31T08:54:51.268Z,15.22
2023-03-31T08:55:51.272Z,15.26
2023-03-31T08:56:51.287Z,15.30
2023-03-31T08:57:51.253Z,15.36
2023-03-31T08:58:51.221Z,15.36
2023-03-31T08:59:51.239Z,15.44
2023-03-31T09:00:51.240Z,15.41
2023-03-31T09:01:56.218Z,15.45
2023-03-31T09:02:52.263Z,15.52
2023-03-31T09:03:51.233Z,15.41
2023-03-31T09:04:51.162Z,15.45
2023-03-31T09:06:00.042Z,15.48
2023-03-31T09:06:52.158Z,15.51
2023-03-31T09:07:51.140Z,15.54
2023-03-31T09:08:51.110Z,15.54
2023-03-31T09:09:51.099Z,15.59
2023-03-31T09:10:51.119Z,15.62
2023-03-31T09:11:51.096Z,15.66
2023-03-31T09:12:51.081Z,15.69
2023-03-31T09:13:51.055Z,15.76
2023-03-31T09:14:51.067Z,15.80
2023-03-31T09:15:51.034Z,15.77
2023-03-31T09:16:51.078Z,15.81
2023-03-31T09:17:51.042Z,15.81
2023-03-31T09:18:51.007Z,15.87
2023-03-31T09:19:51.012Z,15.84
2023-03-31T09:20:50.990Z,15.85
2023-03-31T09:21:50.971Z,15.88
2023-03-31T09:22:51.004Z,15.98
2023-03-31T09:23:50.945Z,16.00
2023-03-31T09:24:50.972Z,16.03
2023-03-31T09:25:50.927Z,16.06
2023-03-31T09:26:50.917Z,16.02
2023-03-31T09:27:50.940Z,16.06
2023-03-31T09:28:50.897Z,16.09
2023-03-31T09:29:50.879Z,16.16
2023-03-31T09:30:50.874Z,16.21
2023-03-31T09:31:51.004Z,16.10
2023-03-31T09:32:50.912Z,16.14
2023-03-31T09:33:50.837Z,16.22
2023-03-31T09:34:50.827Z,16.25
2023-03-31T09:35:52.224Z,16.29
2023-03-31T09:36:50.837Z,16.32
2023-03-31T09:37:50.848Z,16.34
2023-03-31T09:38:50.818Z,16.33
2023-03-31T09:39:50.796Z,16.32
2023-03-31T09:40:50.774Z,16.39
2023-03-31T09:41:50.753Z,16.39
2023-03-31T09:42:50.759Z,16.39
2023-03-31T09:43:50.728Z,16.39
2023-03-31T09:44:50.752Z,16.47
2023-03-31T09:46:07.887Z,16.44
2023-03-31T09:46:51.811Z,16.43
2023-03-31T09:47:50.759Z,16.52
2023-03-31T09:48:50.702Z,16.44
2023-03-31T09:49:53.659Z,16.58
2023-03-31T09:50:50.663Z,16.51
2023-03-31T09:51:50.667Z,16.57
2023-03-31T09:52:50.668Z,16.61
2023-03-31T09:53:50.638Z,16.57
2023-03-31T09:54:50.640Z,16.65
2023-03-31T09:55:50.602Z,16.59
2023-03-31T09:56:50.663Z,16.62
2023-03-31T09:57:50.598Z,16.65
2023-03-31T09:58:50.585Z,16.65
2023-03-31T09:59:50.558Z,16.62
2023-03-31T10:00:50.550Z,16.62
2023-03-31T10:01:50.568Z,16.61
2023-03-31T10:02:50.572Z,16.67
2023-03-31T10:03:50.577Z,16.64
2023-03-31T10:04:50.523Z,16.69
2023-03-31T10:05:50.526Z,16.69
2023-03-31T10:06:50.481Z,16.67
2023-03-31T10:07:50.474Z,16.73
2023-03-31T10:08:50.483Z,16.73
2023-03-31T10:09:50.441Z,16.76
2023-03-31T10:10:50.493Z,16.72
2023-03-31T10:11:50.423Z,16.72
2023-03-31T10:12:50.415Z,16.76
2023-03-31T10:13:50.400Z,16.77
2023-03-31T10:14:50.401Z,16.80
2023-03-31T10:15:50.454Z,16.76
2023-03-31T10:16:50.374Z,16.76
2023-03-31T10:18:50.357Z,16.74
2023-03-31T10:19:50.335Z,16.73
2023-03-31T10:20:50.366Z,16.80
2023-03-31T10:21:50.309Z,16.79
2023-03-31T10:22:50.303Z,16.72
2023-03-31T10:23:50.296Z,16.82
2023-03-31T10:24:50.309Z,16.73
2023-03-31T10:25:50.274Z,16.74
2023-03-31T10:26:50.289Z,16.87
2023-03-31T10:27:50.257Z,16.73
2023-03-31T10:28:50.246Z,16.74
2023-03-31T10:29:50.254Z,16.80
2023-03-31T10:30:50.213Z,16.72
2023-03-31T10:31:50.262Z,16.77
2023-03-31T10:32:53.301Z,16.90
2023-03-31T10:33:50.277Z,16.76
2023-03-31T10:34:50.168Z,16.80
2023-03-31T10:35:50.187Z,16.77
2023-03-31T10:36:50.154Z,16.83
2023-03-31T10:37:50.157Z,16.74
2023-03-31T10:38:50.158Z,16.76
2023-03-31T10:39:50.118Z,16.77
2023-03-31T10:40:50.171Z,16.76
2023-03-31T10:41:50.090Z,16.77
2023-03-31T10:42:50.117Z,16.74
2023-03-31T10:43:50.094Z,16.74
2023-03-31T10:44:50.060Z,16.72
2023-03-31T10:45:50.054Z,16.72
2023-03-31T10:46:50.112Z,16.77
2023-03-31T10:47:50.050Z,16.74
2023-03-31T10:48:50.043Z,16.72
2023-03-31T10:49:50.001Z,16.79
2023-03-31T10:50:49.989Z,16.73
2023-03-31T10:51:49.973Z,16.72
2023-03-31T10:52:49.974Z,16.80
2023-03-31T10:53:49.989Z,16.80
2023-03-31T10:54:49.988Z,16.77
2023-03-31T10:55:49.939Z,16.87
2023-03-31T10:56:51.417Z,16.80
2023-03-31T10:57:49.915Z,16.80
2023-03-31T10:59:02.323Z,16.82
2023-03-31T10:59:50.929Z,16.88
2023-03-31T11:00:49.882Z,16.87
2023-03-31T11:01:49.880Z,16.83
2023-03-31T11:02:49.942Z,16.83
2023-03-31T11:03:50.002Z,16.82
2023-03-31T11:04:49.902Z,16.84
2023-03-31T11:05:49.828Z,16.83
2023-03-31T11:06:49.820Z,16.84
2023-03-31T11:07:49.807Z,16.87
2023-03-31T11:08:49.807Z,16.83
2023-03-31T11:09:49.832Z,16.88
2023-03-31T11:10:49.796Z,16.82
2023-03-31T11:11:49.776Z,16.84
2023-03-31T11:12:49.750Z,16.83
2023-03-31T11:13:49.735Z,16.82
2023-03-31T11:14:49.757Z,16.83
2023-03-31T11:15:49.844Z,16.88
2023-03-31T11:16:49.752Z,16.84
2023-03-31T11:17:49.775Z,16.88
2023-03-31T11:18:49.714Z,16.88
2023-03-31T11:19:49.712Z,16.87
2023-03-31T11:20:49.699Z,16.94
2023-03-31T11:21:49.648Z,16.98
2023-03-31T11:22:49.770Z,16.97
2023-03-31T11:23:49.635Z,16.99
2023-03-31T11:24:49.636Z,17.01
2023-03-31T11:25:49.640Z,17.09
2023-03-31T11:26:49.615Z,17.12
2023-03-31T11:27:49.593Z,17.10
2023-03-31T11:28:49.581Z,17.17
2023-03-31T11:29:49.563Z,17.10
2023-03-31T11:30:49.623Z,17.06
2023-03-31T11:31:49.586Z,17.20
2023-03-31T11:32:49.550Z,17.14
2023-03-31T11:33:49.518Z,17.17
2023-03-31T11:34:49.515Z,17.19
2023-03-31T11:35:49.519Z,17.27
2023-03-31T11:36:49.518Z,17.31
2023-03-31T11:37:49.476Z,17.27
2023-03-31T11:38:49.471Z,17.34
2023-03-31T11:39:49.467Z,17.35
2023-03-31T11:40:49.462Z,17.37
2023-03-31T11:41:49.446Z,17.32
2023-03-31T11:42:49.423Z,17.46
2023-03-31T11:43:49.404Z,17.41
2023-03-31T11:44:49.430Z,17.46
2023-03-31T11:45:49.410Z,17.41
2023-03-31T11:46:49.407Z,17.46
2023-03-31T11:47:49.395Z,17.47
2023-03-31T11:48:49.349Z,17.49
2023-03-31T11:49:49.371Z,17.50
2023-03-31T11:50:49.343Z,17.54
2023-03-31T11:51:49.327Z,17.50
2023-03-31T11:52:49.330Z,17.49
2023-03-31T11:53:49.304Z,17.49
2023-03-31T11:54:49.287Z,17.52
2023-03-31T11:55:49.287Z,17.56
2023-03-31T11:56:49.363Z,17.59
2023-03-31T11:57:49.251Z,17.66
2023-03-31T11:58:49.252Z,17.72
2023-03-31T11:59:49.233Z,17.62
2023-03-31T12:00:49.225Z,17.66
2023-03-31T12:01:49.226Z,17.66
2023-03-31T12:02:49.246Z,17.69
2023-03-31T12:03:49.288Z,17.76
2023-03-31T12:04:49.198Z,17.79
2023-03-31T12:05:49.242Z,17.84
2023-03-31T12:06:49.161Z,17.84
2023-03-31T12:07:49.183Z,17.81
2023-03-31T12:08:49.135Z,17.73
2023-03-31T12:09:49.129Z,17.84
2023-03-31T12:10:49.114Z,17.84
2023-03-31T12:11:49.101Z,17.91
2023-03-31T12:12:49.116Z,17.88
2023-03-31T12:13:49.078Z,17.88
2023-03-31T12:14:49.074Z,17.91
2023-03-31T12:15:49.064Z,17.88
2023-03-31T12:16:49.057Z,17.88
2023-03-31T12:17:49.104Z,17.88
2023-03-31T12:18:49.049Z,17.87
2023-03-31T12:19:49.024Z,17.93
2023-03-31T12:20:49.005Z,17.93
2023-03-31T12:21:48.991Z,17.88
2023-03-31T12:22:49.009Z,17.88
2023-03-31T12:23:48.978Z,17.97
2023-03-31T12:24:48.961Z,17.93
2023-03-31T12:25:48.943Z,17.86
2023-03-31T12:26:48.961Z,17.86
2023-03-31T12:27:48.942Z,17.90
2023-03-31T12:28:48.916Z,17.87
2023-03-31T12:29:48.940Z,17.88
2023-03-31T12:30:48.896Z,17.87
2023-03-31T12:31:48.986Z,17.83
2023-03-31T12:32:48.995Z,17.87
2023-03-31T12:33:48.856Z,17.93
2023-03-31T12:34:48.890Z,17.90
2023-03-31T12:35:48.863Z,17.90
2023-03-31T12:36:48.849Z,17.83
2023-03-31T12:37:48.841Z,17.88
2023-03-31T12:38:48.810Z,17.90
2023-03-31T12:39:48.803Z,17.81
2023-03-31T12:40:48.793Z,17.86
2023-03-31T12:41:48.774Z,17.78
2023-03-31T12:42:48.791Z,17.75
2023-03-31T12:43:48.766Z,17.87
2023-03-31T12:44:48.744Z,17.83
2023-03-31T12:45:48.755Z,17.75
2023-03-31T12:46:48.750Z,17.91
2023-03-31T12:47:48.736Z,17.90
2023-03-31T12:48:48.705Z,17.86
2023-03-31T12:49:48.695Z,17.84
2023-03-31T12:50:48.734Z,17.76
2023-03-31T12:51:48.666Z,17.73
2023-03-31T12:52:48.656Z,17.90
2023-03-31T12:53:48.666Z,17.73